Time;durP1;ratioP1;P1;durP2;ratioP2;P2;SDS_P1;SDS_P2;PMS_P1;PMS_P2;Temp;Humidity;BMP_temperature;BMP_pressure;BME280_temperature;BME280_humidity;BME280_pressure;Samples;Min_cycle;Max_cycle;Signal;HPM_P1;HPM_P2
2022/01/04 00:02:24;;;;;;;19.85;7.95;;;10.00;84.80;;;;;;6148865;22;92358;-74
2022/01/04 00:04:51;;;;;;;21.90;8.18;;;10.00;84.80;;;;;;6124067;23;94877;-74
2022/01/04 00:07:18;;;;;;;24.50;8.48;;;10.00;84.50;;;;;;6098482;23;94043;-74
2022/01/04 00:09:45;;;;;;;21.00;8.40;;;10.00;84.60;;;;;;6125350;23;92765;-74
2022/01/04 00:14:58;;;;;;;19.58;8.70;;;10.00;84.60;;;;;;6125663;23;92308;-75
2022/01/04 00:17:25;;;;;;;24.27;8.90;;;10.00;84.70;;;;;;6098391;23;101494;-75
2022/01/04 00:19:52;;;;;;;15.88;7.45;;;10.00;84.80;;;;;;6074332;23;95471;-75
2022/01/04 00:22:19;;;;;;;17.05;7.15;;;10.00;84.70;;;;;;6126016;23;91685;-75
2022/01/04 00:24:46;;;;;;;23.15;8.15;;;10.00;84.60;;;;;;6125693;23;92370;-76
2022/01/04 00:27:13;;;;;;;24.27;8.55;;;10.00;84.50;;;;;;6124951;23;93097;-74
2022/01/04 00:29:40;;;;;;;17.63;7.25;;;10.00;84.70;;;;;;6123905;23;94736;-76
2022/01/04 00:32:08;;;;;;;14.57;6.82;;;10.00;84.40;;;;;;6125434;23;92397;-75
2022/01/04 00:34:35;;;;;;;18.48;7.72;;;10.00;84.40;;;;;;6098868;23;95543;-75
2022/01/04 00:37:02;;;;;;;19.58;6.97;;;10.00;84.30;;;;;;6098909;23;93043;-75
2022/01/04 00:39:29;;;;;;;23.52;7.10;;;10.00;84.30;;;;;;6125311;23;92323;-75
2022/01/04 00:41:57;;;;;;;17.88;7.60;;;10.10;84.20;;;;;;6123630;23;92471;-75
2022/01/04 00:44:24;;;;;;;23.02;6.72;;;10.10;84.40;;;;;;6122915;23;106535;-76
2022/01/04 00:46:51;;;;;;;18.85;7.55;;;10.10;84.40;;;;;;6125789;23;91681;-76
2022/01/04 00:49:20;;;;;;;14.25;5.95;;;10.10;84.40;;;;;;6098896;23;92409;-76
2022/01/04 00:51:49;;;;;;;21.98;6.82;;;10.10;84.10;;;;;;6099625;23;92492;-75
2022/01/04 00:54:17;;;;;;;18.23;7.75;;;10.20;84.20;;;;;;6121848;23;94867;-76
2022/01/04 00:56:45;;;;;;;19.50;7.75;;;10.20;83.90;;;;;;6125237;23;92883;-75
2022/01/04 00:59:12;;;;;;;17.58;6.90;;;10.20;83.90;;;;;;6123424;23;92761;-75
2022/01/04 01:01:39;;;;;;;17.60;6.53;;;10.20;83.70;;;;;;6126050;23;92453;-75
2022/01/04 01:04:07;;;;;;;25.83;7.68;;;10.20;83.70;;;;;;6099436;23;92694;-76
2022/01/04 01:06:35;;;;;;;22.27;7.22;;;10.10;83.90;;;;;;6125117;23;92438;-75
2022/01/04 01:09:03;;;;;;;18.95;6.47;;;10.10;84.00;;;;;;6123147;23;94135;-75
2022/01/04 01:11:31;;;;;;;19.70;7.07;;;10.00;84.10;;;;;;6125598;23;91677;-75
2022/01/04 01:13:58;;;;;;;18.35;5.97;;;10.00;83.90;;;;;;6123805;23;92909;-75
2022/01/04 01:16:24;;;;;;;21.08;7.25;;;10.00;84.00;;;;;;6098645;23;92866;-75
2022/01/04 01:18:51;;;;;;;19.77;8.13;;;10.00;84.90;;;;;;6123554;23;94931;-75
2022/01/04 01:21:18;;;;;;;23.42;6.90;;;10.00;84.10;;;;;;6098743;23;92428;-75
2022/01/04 01:23:45;;;;;;;24.25;7.93;;;10.00;84.10;;;;;;6125252;23;92840;-75
2022/01/04 01:26:12;;;;;;;17.08;6.97;;;10.00;84.20;;;;;;6124583;23;94146;-74
2022/01/04 01:28:39;;;;;;;18.23;6.78;;;10.10;84.10;;;;;;6125161;23;92907;-74
2022/01/04 01:31:07;;;;;;;16.08;7.00;;;10.10;84.10;;;;;;6124705;23;101805;-73
2022/01/04 01:33:34;;;;;;;25.42;7.32;;;10.10;84.20;;;;;;6098558;23;92536;-73
2022/01/04 01:36:01;;;;;;;21.42;7.10;;;10.10;84.10;;;;;;6125795;23;92244;-76
2022/01/04 01:38:28;;;;;;;24.63;7.68;;;10.10;83.80;;;;;;6124596;23;92511;-75
2022/01/04 01:40:55;;;;;;;19.55;7.05;;;10.10;83.80;;;;;;6125224;23;92289;-74
2022/01/04 01:43:24;;;;;;;21.70;7.03;;;10.10;84.00;;;;;;6123335;23;94823;-73
2022/01/04 01:45:53;;;;;;;19.92;7.45;;;10.00;83.80;;;;;;6124877;23;92892;-73
2022/01/04 01:48:20;;;;;;;24.00;7.40;;;10.00;84.10;;;;;;6124483;23;92683;-73
2022/01/04 01:50:47;;;;;;;26.20;7.88;;;9.90;84.10;;;;;;6125015;23;92462;-73
2022/01/04 01:53:15;;;;;;;18.30;7.10;;;9.90;84.20;;;;;;6123136;23;92819;-73
2022/01/04 01:55:42;;;;;;;16.13;6.63;;;9.90;84.20;;;;;;6147513;22;94071;-73
2022/01/04 01:58:09;;;;;;;18.88;7.25;;;9.90;84.10;;;;;;6124721;23;92819;-73
2022/01/04 02:00:36;;;;;;;27.23;7.45;;;9.80;84.20;;;;;;6123504;23;92002;-73
2022/01/04 02:03:04;;;;;;;21.35;7.28;;;9.80;84.40;;;;;;6099031;23;92416;-73
2022/01/04 02:05:31;;;;;;;18.63;7.10;;;9.80;84.50;;;;;;6125046;23;95904;-74
2022/01/04 02:08:00;;;;;;;24.67;8.48;;;9.80;84.50;;;;;;6123810;23;94733;-73
2022/01/04 02:10:27;;;;;;;15.88;7.15;;;9.80;84.40;;;;;;6099249;23;92670;-73
2022/01/04 02:12:54;;;;;;;18.80;7.40;;;9.80;84.90;;;;;;6125450;23;92579;-73
2022/01/04 02:15:24;;;;;;;18.67;7.18;;;9.80;84.40;;;;;;6124870;23;93630;-74
2022/01/04 02:17:51;;;;;;;22.70;7.63;;;9.80;84.30;;;;;;6124959;23;92660;-74
2022/01/04 02:20:18;;;;;;;24.33;8.13;;;9.90;84.40;;;;;;6124663;23;92437;-74
2022/01/04 02:22:46;;;;;;;22.60;7.55;;;9.90;84.50;;;;;;6125095;23;92425;-68
2022/01/04 02:25:13;;;;;;;22.65;8.32;;;9.90;84.40;;;;;;6098348;23;94873;-69
2022/01/04 02:27:41;;;;;;;14.35;8.40;;;10.00;84.40;;;;;;6097765;23;94721;-68
2022/01/04 02:30:16;;;;;;;20.38;8.13;;;10.00;84.40;;;;;;6125017;23;92496;-68
2022/01/04 02:32:44;;;;;;;22.60;7.72;;;10.10;84.30;;;;;;6123124;23;94939;-69
2022/01/04 02:35:14;;;;;;;16.85;8.40;;;10.10;84.30;;;;;;6124502;23;94021;-68
2022/01/04 02:37:41;;;;;;;18.02;8.05;;;10.10;84.20;;;;;;6124276;23;92904;-68
2022/01/04 02:40:08;;;;;;;27.95;9.00;;;10.20;84.40;;;;;;6098646;23;92515;-69
2022/01/04 02:42:35;;;;;;;19.48;8.50;;;10.20;84.10;;;;;;6124467;23;92977;-68
2022/01/04 02:45:03;;;;;;;26.63;8.95;;;10.20;84.00;;;;;;6124690;23;93017;-68
2022/01/04 02:47:33;;;;;;;21.20;8.23;;;10.20;84.10;;;;;;6124467;23;94844;-68
2022/01/04 02:50:00;;;;;;;22.13;9.10;;;10.20;84.20;;;;;;6099052;23;91749;-68
2022/01/04 02:52:27;;;;;;;26.60;9.13;;;10.30;84.10;;;;;;6122753;23;92603;-68
2022/01/04 02:54:54;;;;;;;25.85;9.32;;;10.30;83.90;;;;;;6124418;23;92930;-68
2022/01/04 02:57:22;;;;;;;20.60;8.73;;;10.20;84.20;;;;;;6096969;23;94814;-67
2022/01/04 02:59:49;;;;;;;22.38;8.77;;;10.20;83.90;;;;;;6124658;23;92386;-71
2022/01/04 03:02:16;;;;;;;23.33;8.82;;;10.20;83.80;;;;;;6123830;23;108831;-71
2022/01/04 03:04:44;;;;;;;23.70;8.70;;;10.20;83.80;;;;;;6124141;23;95395;-71
2022/01/04 03:07:10;;;;;;;26.50;9.63;;;10.20;83.90;;;;;;6122847;23;94707;-75
2022/01/04 03:09:37;;;;;;;20.58;8.35;;;10.20;84.00;;;;;;6122651;23;92430;-75
2022/01/04 03:12:06;;;;;;;20.33;8.75;;;10.20;83.80;;;;;;6122981;23;92939;-74
2022/01/04 03:14:34;;;;;;;20.95;8.35;;;10.20;84.00;;;;;;6124624;23;92339;-73
2022/01/04 03:17:02;;;;;;;21.05;8.95;;;10.20;83.80;;;;;;6124625;23;92780;-73
2022/01/04 03:19:29;;;;;;;21.50;8.18;;;10.30;83.90;;;;;;6124208;23;92433;-73
2022/01/04 03:21:56;;;;;;;21.92;8.90;;;10.30;83.80;;;;;;6123118;23;95015;-74
2022/01/04 03:24:23;;;;;;;17.95;8.10;;;10.30;83.60;;;;;;6124474;23;93761;-73
2022/01/04 03:26:51;;;;;;;18.00;8.38;;;10.30;83.70;;;;;;6097860;23;92815;-71
2022/01/04 03:29:18;;;;;;;20.65;8.90;;;10.30;83.70;;;;;;6098276;23;92530;-68
2022/01/04 03:31:45;;;;;;;22.83;8.95;;;10.30;83.60;;;;;;6124065;23;92469;-69
2022/01/04 03:34:12;;;;;;;23.10;9.02;;;10.30;83.80;;;;;;6123679;23;106106;-68
2022/01/04 03:36:40;;;;;;;24.33;9.00;;;10.30;83.70;;;;;;6123990;23;92632;-68
2022/01/04 03:39:09;;;;;;;21.42;9.32;;;10.30;83.50;;;;;;6098654;23;92007;-68
2022/01/04 03:41:40;;;;;;;20.08;8.48;;;10.30;83.90;;;;;;6124073;23;92888;-68
2022/01/04 03:44:19;;;;;;;21.55;8.88;;;10.30;83.60;;;;;;6124231;23;93122;-72
2022/01/04 03:46:49;;;;;;;28.52;11.10;;;10.30;83.60;;;;;;6122403;23;94866;-73
2022/01/04 03:49:16;;;;;;;24.80;10.00;;;10.30;83.80;;;;;;6123737;23;92731;-74
2022/01/04 03:51:43;;;;;;;25.10;10.52;;;10.30;84.20;;;;;;6123309;23;92423;-69
2022/01/04 03:54:10;;;;;;;23.27;10.02;;;10.30;83.90;;;;;;6096776;23;93137;-68
2022/01/04 03:56:37;;;;;;;22.73;9.85;;;10.30;83.70;;;;;;6122504;23;99922;-74
2022/01/04 03:59:04;;;;;;;26.55;11.18;;;10.20;83.30;;;;;;6098097;23;92812;-73
2022/01/04 04:01:32;;;;;;;19.13;10.30;;;10.20;83.80;;;;;;6123604;23;92455;-73
2022/01/04 04:03:59;;;;;;;26.70;11.00;;;10.20;84.00;;;;;;6097569;23;92404;-73
2022/01/04 04:06:25;;;;;;;21.63;10.25;;;10.10;84.00;;;;;;6121977;23;110948;-73
2022/01/04 04:08:56;;;;;;;27.65;10.98;;;10.10;84.20;;;;;;6123298;23;92763;-73
2022/01/04 04:11:24;;;;;;;27.20;11.15;;;10.00;84.40;;;;;;6097285;23;94851;-74
2022/01/04 04:13:52;;;;;;;22.92;11.25;;;10.00;84.30;;;;;;6096479;23;94061;-73
2022/01/04 04:16:19;;;;;;;20.15;9.57;;;10.00;84.50;;;;;;6123489;23;92877;-73
2022/01/04 04:18:46;;;;;;;32.33;11.38;;;10.00;84.40;;;;;;6097601;23;92366;-73
2022/01/04 04:21:13;;;;;;;28.15;10.25;;;10.00;84.80;;;;;;6121976;23;92482;-73
2022/01/04 04:23:40;;;;;;;27.67;10.00;;;10.00;84.40;;;;;;6096568;23;98282;-73
2022/01/04 04:26:07;;;;;;;26.85;11.07;;;10.00;84.70;;;;;;6124000;23;92836;-73
2022/01/04 04:28:34;;;;;;;27.42;11.68;;;10.00;84.70;;;;;;6097958;23;91652;-73
2022/01/04 04:31:03;;;;;;;29.85;11.88;;;10.00;84.70;;;;;;6123521;23;92515;-74
2022/01/04 04:33:30;;;;;;;22.02;11.02;;;10.00;84.50;;;;;;6123431;23;93085;-73
2022/01/04 04:35:57;;;;;;;25.67;11.55;;;10.00;84.60;;;;;;6095388;23;94851;-74
2022/01/04 04:38:24;;;;;;;24.67;10.95;;;10.00;84.60;;;;;;6072223;23;96753;-73
2022/01/04 04:40:51;;;;;;;25.60;11.57;;;10.10;84.60;;;;;;6121592;23;92475;-73
2022/01/04 04:43:18;;;;;;;28.75;11.77;;;10.10;84.40;;;;;;6124394;23;93162;-74
2022/01/04 04:45:45;;;;;;;24.65;11.55;;;10.10;84.40;;;;;;6123996;23;108230;-73
2022/01/04 04:48:12;;;;;;;24.88;10.98;;;10.10;84.30;;;;;;6124282;23;97234;-73
2022/01/04 04:50:39;;;;;;;29.67;12.18;;;10.10;84.60;;;;;;6098577;23;93105;-74
2022/01/04 04:53:06;;;;;;;23.85;11.70;;;10.10;84.60;;;;;;6125016;23;92081;-74
2022/01/04 04:55:33;;;;;;;21.35;11.40;;;10.10;84.50;;;;;;6097507;23;93387;-74
2022/01/04 04:58:00;;;;;;;24.80;12.20;;;10.20;84.60;;;;;;6124432;23;92407;-74
2022/01/04 05:00:27;;;;;;;23.83;12.35;;;10.20;84.70;;;;;;6096913;23;94872;-74
2022/01/04 05:02:54;;;;;;;26.48;11.57;;;10.20;84.50;;;;;;6124382;23;92892;-73
2022/01/04 05:05:21;;;;;;;21.35;13.10;;;10.20;84.50;;;;;;6124424;23;92884;-73
2022/01/04 05:07:48;;;;;;;26.63;13.52;;;10.20;84.50;;;;;;6124213;23;92397;-73
2022/01/04 05:10:15;;;;;;;26.05;12.57;;;10.20;84.50;;;;;;6097743;23;93124;-73
2022/01/04 05:12:42;;;;;;;22.88;12.88;;;10.30;84.30;;;;;;6122392;23;94141;-73
2022/01/04 05:15:09;;;;;;;25.17;12.68;;;10.30;84.40;;;;;;6123850;23;107667;-73
2022/01/04 05:17:36;;;;;;;32.53;13.55;;;10.30;84.50;;;;;;6074094;23;91630;-73
2022/01/04 05:20:04;;;;;;;28.15;13.55;;;10.30;84.60;;;;;;6124223;23;92471;-73
2022/01/04 05:22:31;;;;;;;26.75;13.60;;;10.30;84.70;;;;;;6124267;23;93059;-73
2022/01/04 05:24:58;;;;;;;25.50;12.77;;;10.30;84.60;;;;;;6096430;23;94817;-73
2022/01/04 05:27:25;;;;;;;26.90;14.60;;;10.30;84.50;;;;;;6124450;23;92386;-73
2022/01/04 05:29:52;;;;;;;28.85;14.10;;;10.30;84.50;;;;;;6124114;23;92400;-73
2022/01/04 05:32:18;;;;;;;27.02;15.48;;;10.30;84.60;;;;;;6124390;23;93053;-73
2022/01/04 05:34:45;;;;;;;24.73;14.40;;;10.30;84.60;;;;;;6124055;23;92842;-73
2022/01/04 05:37:12;;;;;;;27.65;15.55;;;10.20;84.90;;;;;;6124628;23;92411;-73
2022/01/04 05:39:39;;;;;;;25.95;14.55;;;10.20;84.60;;;;;;6124021;23;105596;-73
2022/01/04 05:42:08;;;;;;;26.15;14.27;;;10.20;84.80;;;;;;6123023;23;94587;-74
2022/01/04 05:44:36;;;;;;;25.67;14.65;;;10.20;84.80;;;;;;6124540;23;92513;-74
2022/01/04 05:47:06;;;;;;;31.23;16.13;;;10.20;84.60;;;;;;6097868;23;92361;-74
2022/01/04 05:49:34;;;;;;;29.83;15.35;;;10.20;84.50;;;;;;6097273;23;95239;-73
2022/01/04 05:52:04;;;;;;;31.63;15.30;;;10.20;84.50;;;;;;6097710;23;94075;-74
2022/01/04 05:54:32;;;;;;;28.05;14.40;;;10.30;84.80;;;;;;6124425;23;92874;-73
2022/01/04 05:57:00;;;;;;;26.95;14.98;;;10.30;84.60;;;;;;6065086;23;92366;-68
2022/01/04 05:59:27;;;;;;;24.35;14.15;;;10.30;84.60;;;;;;6065332;23;92449;-68
2022/01/04 06:01:54;;;;;;;28.05;14.98;;;10.30;84.40;;;;;;6064508;23;93159;-68
2022/01/04 06:04:21;;;;;;;23.85;14.60;;;10.30;84.50;;;;;;6065331;23;92877;-71
2022/01/04 06:06:48;;;;;;;29.17;15.63;;;10.30;84.30;;;;;;6065536;23;91871;-68
2022/01/04 06:09:22;;;;;;;24.67;13.50;;;10.30;84.30;;;;;;6065387;23;92389;-68
2022/01/04 06:17:04;;;;;;;29.25;14.00;;;10.20;84.50;;;;;;6063737;23;92820;-75
2022/01/04 06:19:31;;;;;;;24.60;13.40;;;10.20;84.40;;;;;;6065132;23;92417;-74
2022/01/04 06:21:58;;;;;;;28.88;14.02;;;10.20;84.40;;;;;;6064292;23;107115;-75
2022/01/04 06:24:25;;;;;;;28.42;14.85;;;10.10;85.10;;;;;;6063417;23;92820;-75
2022/01/04 06:26:52;;;;;;;28.35;14.07;;;10.10;84.40;;;;;;6063371;23;92530;-74
2022/01/04 06:29:22;;;;;;;25.15;13.98;;;10.10;84.40;;;;;;6063804;23;92504;-73
2022/01/04 06:31:49;;;;;;;24.70;13.35;;;10.10;84.50;;;;;;6065642;23;92291;-74
2022/01/04 06:34:16;;;;;;;26.23;13.43;;;10.10;84.50;;;;;;6063407;23;92515;-73
2022/01/04 06:36:43;;;;;;;25.17;13.35;;;10.10;84.40;;;;;;6039682;23;92511;-73
2022/01/04 06:39:10;;;;;;;24.60;13.65;;;10.00;84.40;;;;;;6063513;23;94763;-73
2022/01/04 06:41:37;;;;;;;25.35;13.50;;;10.00;84.70;;;;;;6087768;23;94170;-73
2022/01/04 06:44:04;;;;;;;32.53;14.63;;;10.00;84.60;;;;;;6063908;23;112245;-72
2022/01/04 06:46:31;;;;;;;29.33;14.05;;;10.00;84.80;;;;;;6065123;23;92793;-72
2022/01/04 06:48:59;;;;;;;25.08;14.02;;;10.00;84.70;;;;;;6064644;23;92471;-73
2022/01/04 06:51:26;;;;;;;22.58;13.45;;;10.00;84.80;;;;;;6064704;23;94865;-73
2022/01/04 06:53:52;;;;;;;24.20;13.50;;;10.00;84.80;;;;;;6064850;23;92827;-72
2022/01/04 06:56:19;;;;;;;30.05;15.93;;;10.00;85.00;;;;;;6107595;23;94230;-72
2022/01/04 06:58:46;;;;;;;25.80;14.40;;;10.10;84.90;;;;;;6098062;23;92502;-73
2022/01/04 07:01:13;;;;;;;33.33;14.45;;;10.10;84.70;;;;;;6122173;23;93127;-72
2022/01/04 07:03:40;;;;;;;26.88;13.63;;;10.10;84.70;;;;;;6122673;23;94821;-73
2022/01/04 07:06:07;;;;;;;31.45;14.68;;;10.00;84.80;;;;;;6097708;23;92911;-72
2022/01/04 07:08:34;;;;;;;24.42;13.15;;;10.00;85.00;;;;;;6124437;23;92535;-74
2022/01/04 07:11:01;;;;;;;25.23;13.48;;;10.00;84.90;;;;;;6123279;23;107148;-73
2022/01/04 07:13:28;;;;;;;21.48;13.13;;;10.00;85.00;;;;;;6124323;23;92884;-73
2022/01/04 07:15:55;;;;;;;25.75;14.05;;;10.00;85.10;;;;;;6122259;23;92381;-72
2022/01/04 07:18:22;;;;;;;24.30;14.82;;;10.00;85.00;;;;;;6124202;23;92429;-73
2022/01/04 07:20:49;;;;;;;30.35;14.80;;;9.90;85.00;;;;;;6124422;23;92360;-73
2022/01/04 07:23:16;;;;;;;31.48;16.25;;;10.00;85.30;;;;;;6097467;23;92523;-73
2022/01/04 07:25:43;;;;;;;28.88;15.75;;;10.00;85.10;;;;;;6124202;23;92405;-72
2022/01/04 07:28:10;;;;;;;28.77;15.82;;;10.00;85.10;;;;;;6095597;23;94904;-73
2022/01/04 07:30:37;;;;;;;26.08;15.65;;;10.00;85.00;;;;;;6097523;23;93074;-74
2022/01/04 07:33:04;;;;;;;26.20;13.85;;;10.00;85.00;;;;;;6123225;23;97609;-74
2022/01/04 07:35:31;;;;;;;28.00;16.88;;;10.00;85.00;;;;;;6123990;23;92743;-73
2022/01/04 07:37:59;;;;;;;29.25;15.27;;;9.90;85.40;;;;;;6073275;23;92462;-73
2022/01/04 07:40:26;;;;;;;28.95;16.00;;;9.90;85.30;;;;;;6123602;23;92749;-74
2022/01/04 07:42:54;;;;;;;29.52;16.23;;;9.90;85.50;;;;;;6122253;23;94206;-74
2022/01/04 07:45:22;;;;;;;33.22;16.13;;;9.90;85.40;;;;;;6122194;23;91763;-74
2022/01/04 07:47:49;;;;;;;28.05;14.32;;;9.90;85.60;;;;;;6123626;23;92504;-75
2022/01/04 07:50:17;;;;;;;29.63;16.60;;;9.90;85.60;;;;;;6123499;23;92907;-75
2022/01/04 07:52:44;;;;;;;28.77;16.50;;;9.90;85.50;;;;;;6095040;23;94761;-75
2022/01/04 07:55:11;;;;;;;30.70;16.33;;;9.90;85.70;;;;;;6122867;23;92444;-74
2022/01/04 07:57:40;;;;;;;23.90;14.93;;;9.90;85.50;;;;;;6097549;23;92881;-75
2022/01/04 08:00:08;;;;;;;31.42;15.52;;;9.90;85.50;;;;;;6120837;23;97945;-73
2022/01/04 08:02:42;;;;;;;25.85;15.40;;;10.00;85.50;;;;;;6123529;23;92716;-74
2022/01/04 08:05:10;;;;;;;27.88;15.65;;;10.00;85.40;;;;;;6123379;23;92330;-75
2022/01/04 08:07:37;;;;;;;24.73;14.18;;;10.00;85.40;;;;;;6123684;23;92427;-74
2022/01/04 08:10:05;;;;;;;22.38;13.63;;;10.10;85.10;;;;;;6122161;23;92356;-74
2022/01/04 08:12:32;;;;;;;22.52;14.13;;;10.10;84.90;;;;;;6123392;23;92347;-74
2022/01/04 08:14:59;;;;;;;24.02;13.05;;;10.10;84.80;;;;;;6123533;23;92530;-74
2022/01/04 08:17:26;;;;;;;24.02;14.57;;;10.10;84.50;;;;;;6122145;23;94842;-74
2022/01/04 08:19:53;;;;;;;25.23;14.82;;;10.10;84.50;;;;;;6098403;23;92956;-75
2022/01/04 08:22:20;;;;;;;24.58;14.13;;;10.10;85.10;;;;;;6124346;23;92813;-75
2022/01/04 08:24:46;;;;;;;23.80;15.07;;;10.10;84.40;;;;;;6124881;23;92608;-74
2022/01/04 08:27:13;;;;;;;28.67;14.55;;;10.20;84.40;;;;;;6098040;23;92476;-75
2022/01/04 08:29:41;;;;;;;23.33;13.75;;;10.20;84.40;;;;;;6124525;23;92514;-75
2022/01/04 08:32:08;;;;;;;27.55;14.98;;;10.20;84.30;;;;;;6124320;23;92744;-75
2022/01/04 08:34:35;;;;;;;26.83;16.40;;;10.20;84.30;;;;;;6098833;23;91722;-75
2022/01/04 08:37:02;;;;;;;28.10;16.38;;;10.20;84.40;;;;;;6124358;23;92441;-75
2022/01/04 08:39:29;;;;;;;24.67;15.30;;;10.30;84.30;;;;;;6097680;23;94392;-75
2022/01/04 08:42:01;;;;;;;24.60;14.68;;;10.30;84.10;;;;;;6122084;23;94837;-75
2022/01/04 08:44:28;;;;;;;27.92;16.02;;;10.30;84.10;;;;;;6124699;23;92676;-75
2022/01/04 08:46:56;;;;;;;35.63;17.02;;;10.30;84.10;;;;;;6124573;23;95410;-75
2022/01/04 08:49:23;;;;;;;24.73;14.93;;;10.30;84.10;;;;;;6124622;23;92967;-75
2022/01/04 08:51:49;;;;;;;28.20;16.25;;;10.30;83.90;;;;;;6124857;23;93370;-75
2022/01/04 08:54:17;;;;;;;25.08;16.33;;;10.30;83.90;;;;;;6122443;23;92466;-70
2022/01/04 08:56:44;;;;;;;28.52;16.70;;;10.30;84.00;;;;;;6098019;23;92353;-70
2022/01/04 08:59:13;;;;;;;25.75;15.85;;;10.20;83.90;;;;;;6124693;23;92262;-70
2022/01/04 09:01:41;;;;;;;14.60;9.43;;;10.20;84.20;;;;;;6098597;23;92415;-70
2022/01/04 09:04:08;;;;;;;14.52;9.55;;;10.20;84.00;;;;;;6125332;23;92423;-70
2022/01/04 09:06:35;;;;;;;9.52;6.15;;;10.10;83.50;;;;;;6123463;23;94801;-70
2022/01/04 09:09:03;;;;;;;6.10;4.13;;;10.10;82.40;;;;;;6125359;23;92889;-70
2022/01/04 09:11:30;;;;;;;8.57;4.90;;;10.00;82.00;;;;;;6124747;23;92796;-70
2022/01/04 09:19:25;;;;;;;10.75;7.20;;;10.00;82.90;;;;;;6102978;23;95191;-70
2022/01/04 09:21:52;;;;;;;11.95;8.57;;;10.00;83.10;;;;;;6124830;23;92803;-70
2022/01/04 09:24:19;;;;;;;10.27;6.30;;;10.00;83.00;;;;;;6125604;23;91613;-70
2022/01/04 09:26:49;;;;;;;10.23;6.72;;;10.00;82.40;;;;;;6124532;23;102865;-70
2022/01/04 09:29:19;;;;;;;8.75;5.78;;;10.00;82.50;;;;;;6124488;23;92704;-70
2022/01/04 09:31:47;;;;;;;12.70;6.03;;;10.00;82.50;;;;;;6123559;23;94829;-69
2022/01/04 09:34:14;;;;;;;9.02;5.75;;;10.00;82.90;;;;;;6125019;23;92439;-69
2022/01/04 09:36:42;;;;;;;11.55;4.75;;;10.00;82.10;;;;;;6125371;23;92386;-68
2022/01/04 09:39:13;;;;;;;8.20;4.70;;;10.00;82.20;;;;;;6099009;23;93000;-68
2022/01/04 09:41:41;;;;;;;7.90;4.55;;;10.10;82.00;;;;;;6122738;23;95379;-68
2022/01/04 09:44:12;;;;;;;6.82;3.60;;;10.10;81.90;;;;;;6125190;23;92351;-69
2022/01/04 09:46:40;;;;;;;8.73;3.85;;;10.00;81.60;;;;;;6124878;23;92384;-68
2022/01/04 09:49:10;;;;;;;4.82;2.85;;;10.10;81.40;;;;;;6098735;23;93534;-68
2022/01/04 09:51:39;;;;;;;3.10;2.10;;;10.10;81.30;;;;;;6122637;23;93138;-69
2022/01/04 09:54:06;;;;;;;5.95;2.28;;;10.10;81.10;;;;;;6125263;23;92345;-69
2022/01/04 09:56:34;;;;;;;5.10;2.05;;;10.10;81.20;;;;;;6121192;23;94899;-68
2022/01/04 09:59:01;;;;;;;3.80;2.42;;;10.10;81.20;;;;;;6098831;23;92982;-69
2022/01/04 10:01:35;;;;;;;6.80;2.28;;;10.20;81.30;;;;;;6124588;23;92662;-68
2022/01/04 10:04:24;;;;;;;4.88;2.05;;;10.20;81.10;;;;;;6125501;23;92333;-69
2022/01/04 10:07:04;;;;;;;2.35;1.90;;;10.20;80.50;;;;;;6124749;23;92292;-68
2022/01/04 10:09:52;;;;;;;5.38;2.13;;;10.20;80.60;;;;;;6124524;23;93002;-69
2022/01/04 10:12:23;;;;;;;6.93;1.77;;;10.30;80.40;;;;;;6124720;23;92390;-68
2022/01/04 10:14:52;;;;;;;4.88;1.70;;;10.10;80.70;;;;;;6125466;23;91562;-68
2022/01/04 10:17:28;;;;;;;6.28;2.50;;;10.10;80.70;;;;;;6124859;23;92403;-71
2022/01/04 10:19:57;;;;;;;6.63;1.98;;;10.10;80.90;;;;;;6124880;23;93071;-69
2022/01/04 10:22:31;;;;;;;3.80;1.90;;;10.10;80.80;;;;;;6096268;23;94829;-70
2022/01/04 10:25:01;;;;;;;4.97;1.50;;;10.10;80.10;;;;;;6098218;23;94014;-69
2022/01/04 10:27:42;;;;;;;5.28;1.70;;;10.00;79.10;;;;;;6124654;23;92441;-69
2022/01/04 10:30:22;;;;;;;3.22;1.80;;;10.00;79.40;;;;;;6124989;23;92951;-69
2022/01/04 10:32:51;;;;;;;4.90;2.78;;;9.90;79.60;;;;;;6124744;23;92603;-69
2022/01/04 10:35:27;;;;;;;4.65;1.58;;;9.90;79.70;;;;;;6123348;23;92363;-69
2022/01/04 10:37:55;;;;;;;4.05;1.30;;;9.90;79.10;;;;;;6125046;23;92373;-69
2022/01/04 10:40:23;;;;;;;5.15;1.65;;;9.70;79.20;;;;;;6097750;23;93277;-69
2022/01/04 10:42:50;;;;;;;2.50;1.30;;;9.60;79.40;;;;;;6124746;23;92575;-69
2022/01/04 10:45:29;;;;;;;2.05;1.08;;;9.40;79.90;;;;;;6073283;23;102014;-69
2022/01/04 10:48:10;;;;;;;2.65;1.38;;;9.30;80.40;;;;;;6121986;23;94986;-70
2022/01/04 10:50:38;;;;;;;4.13;1.60;;;9.20;80.80;;;;;;6097766;23;94382;-69
2022/01/04 10:53:12;;;;;;;4.65;1.65;;;9.10;81.20;;;;;;6124608;23;92716;-70
2022/01/04 10:55:39;;;;;;;3.28;1.40;;;9.00;81.50;;;;;;6124106;23;92557;-69
2022/01/04 10:58:06;;;;;;;2.05;1.30;;;8.90;81.00;;;;;;6124812;23;92508;-69
2022/01/04 11:00:33;;;;;;;4.25;1.10;;;8.80;80.80;;;;;;6098007;23;93082;-69
2022/01/04 11:03:02;;;;;;;5.15;1.30;;;8.70;81.10;;;;;;6124680;23;92857;-69
2022/01/04 11:05:29;;;;;;;2.70;1.25;;;8.70;81.10;;;;;;6124889;23;91648;-69
2022/01/04 11:08:00;;;;;;;3.20;1.20;;;8.70;81.60;;;;;;6098470;23;92534;-69
2022/01/04 11:10:29;;;;;;;3.97;1.10;;;8.60;81.70;;;;;;6123175;23;92955;-69
2022/01/04 11:13:00;;;;;;;2.58;1.23;;;8.60;81.40;;;;;;6123380;23;95278;-69
2022/01/04 11:15:28;;;;;;;4.22;1.67;;;8.50;81.40;;;;;;6124934;23;92295;-70
2022/01/04 11:17:58;;;;;;;1.67;0.93;;;8.50;81.20;;;;;;6098601;23;92409;-70
2022/01/04 11:20:25;;;;;;;3.33;1.35;;;8.40;81.80;;;;;;6124583;23;92918;-71
2022/01/04 11:22:56;;;;;;;3.38;1.10;;;8.40;83.00;;;;;;6123734;23;106631;-71
2022/01/04 11:25:24;;;;;;;6.65;0.98;;;8.30;83.10;;;;;;6124896;23;92406;-71
2022/01/04 11:27:53;;;;;;;1.27;0.60;;;8.20;82.80;;;;;;6124345;23;92465;-70
2022/01/04 11:30:33;;;;;;;2.33;0.60;;;8.10;82.90;;;;;;6124670;23;93294;-69
2022/01/04 11:33:07;;;;;;;0.95;0.60;;;8.00;83.30;;;;;;6125008;23;92878;-69
2022/01/04 11:35:34;;;;;;;2.58;0.68;;;8.00;81.90;;;;;;6124705;23;92439;-70
2022/01/04 11:38:02;;;;;;;2.25;0.70;;;7.90;81.70;;;;;;6097077;23;94854;-69
2022/01/04 11:40:34;;;;;;;3.30;0.70;;;7.90;82.50;;;;;;6147345;22;92910;-69
2022/01/04 11:43:03;;;;;;;1.63;0.60;;;7.90;82.20;;;;;;6124275;23;92828;-69
2022/01/04 11:45:45;;;;;;;2.33;0.77;;;7.90;82.80;;;;;;6124496;23;92309;-69
2022/01/04 11:48:32;;;;;;;1.92;0.63;;;7.90;83.30;;;;;;6124555;23;92319;-69
2022/01/04 11:51:04;;;;;;;1.25;0.82;;;7.80;82.50;;;;;;6097772;23;94039;-69
2022/01/04 11:53:32;;;;;;;2.70;0.70;;;7.80;81.10;;;;;;6123437;23;94073;-69
2022/01/04 11:56:04;;;;;;;1.05;0.47;;;7.70;81.10;;;;;;6125575;23;91541;-69
2022/01/04 11:58:54;;;;;;;2.35;0.60;;;7.80;81.00;;;;;;6098651;23;95619;-69
2022/01/04 12:01:27;;;;;;;2.70;0.70;;;7.90;80.60;;;;;;6125237;23;93047;-69
2022/01/04 12:03:55;;;;;;;2.47;0.50;;;8.00;81.10;;;;;;6123834;23;97349;-69
2022/01/04 12:06:35;;;;;;;1.73;0.80;;;8.10;80.50;;;;;;6125700;23;92379;-69
2022/01/04 12:09:21;;;;;;;2.53;0.63;;;8.10;80.10;;;;;;6125574;23;92414;-70
2022/01/04 12:11:48;;;;;;;1.83;0.77;;;8.00;80.30;;;;;;6124901;23;93114;-69
2022/01/04 12:14:24;;;;;;;1.02;0.60;;;7.80;82.80;;;;;;6148681;22;92864;-70
2022/01/04 12:17:06;;;;;;;1.50;0.70;;;7.70;83.90;;;;;;6125512;23;93548;-69
2022/01/04 12:19:48;;;;;;;1.25;0.63;;;7.50;83.50;;;;;;6099595;23;92327;-70
2022/01/04 12:22:30;;;;;;;1.55;0.68;;;7.30;85.10;;;;;;6125826;23;92237;-70
2022/01/04 12:25:05;;;;;;;0.82;0.55;;;7.10;86.10;;;;;;6125201;23;92295;-69
2022/01/04 12:27:32;;;;;;;1.90;0.50;;;7.10;85.60;;;;;;6124152;23;92380;-70
2022/01/04 12:30:22;;;;;;;3.50;0.52;;;6.90;84.90;;;;;;6123838;23;94767;-70
2022/01/04 12:32:49;;;;;;;3.22;0.60;;;6.90;82.60;;;;;;6088939;23;93122;-69
2022/01/04 12:35:17;;;;;;;1.67;0.80;;;6.80;82.20;;;;;;6084554;23;93653;-69
2022/01/04 12:37:44;;;;;;;0.95;0.57;;;6.90;81.30;;;;;;6084789;23;93235;-69
2022/01/04 12:40:11;;;;;;;2.38;0.70;;;6.90;81.70;;;;;;6058412;23;93808;-68
2022/01/04 12:42:42;;;;;;;2.83;1.00;;;7.00;81.20;;;;;;6101556;23;93164;-72
2022/01/04 12:45:12;;;;;;;2.05;0.70;;;7.20;80.50;;;;;;6126855;22;95722;-72
2022/01/04 12:47:47;;;;;;;3.55;0.90;;;7.20;79.20;;;;;;6102469;23;91743;-69
2022/01/04 12:50:15;;;;;;;4.95;0.82;;;7.40;79.20;;;;;;6102323;23;92351;-74
2022/01/04 12:52:47;;;;;;;2.78;0.77;;;7.50;78.30;;;;;;6099865;23;93154;-73
2022/01/04 12:55:14;;;;;;;2.20;0.60;;;7.60;77.20;;;;;;6100787;23;95643;-72
2022/01/04 12:57:42;;;;;;;5.50;1.20;;;7.70;76.60;;;;;;6076847;23;93338;-68
2022/01/04 13:00:15;;;;;;;2.70;0.82;;;7.80;75.70;;;;;;6076610;23;93312;-72